createdAt,value
2023-03-10T01:07:57.223Z,10.64
2023-03-10T01:10:27.472Z,10.71
2023-03-10T01:12:56.064Z,10.67
2023-03-10T01:15:25.611Z,10.63
2023-03-10T01:17:54.241Z,10.61
2023-03-10T01:20:22.935Z,10.61
2023-03-10T01:22:52.275Z,10.63
2023-03-10T01:25:20.803Z,10.66
2023-03-10T01:27:49.285Z,10.71
2023-03-10T01:30:18.300Z,10.82
2023-03-10T01:32:48.401Z,10.96
2023-03-10T01:35:16.975Z,11.12
2023-03-10T01:37:49.726Z,11.25
2023-03-10T01:40:19.058Z,11.34
2023-03-10T01:42:50.352Z,11.44
2023-03-10T01:45:19.107Z,11.52
2023-03-10T01:47:47.369Z,11.55
2023-03-10T01:50:16.806Z,11.56
2023-03-10T01:52:47.360Z,11.58
2023-03-10T01:55:20.300Z,11.62
2023-03-10T01:57:58.023Z,11.65
2023-03-10T02:00:28.203Z,11.66
2023-03-10T02:03:08.065Z,11.65
2023-03-10T02:05:38.360Z,11.64
2023-03-10T02:08:09.013Z,11.63
2023-03-10T02:10:38.253Z,11.63
2023-03-10T02:13:06.693Z,11.61
2023-03-10T02:15:36.327Z,11.61
2023-03-10T02:18:06.242Z,11.62
2023-03-10T02:21:01.164Z,11.65
2023-03-10T02:24:01.736Z,11.68
2023-03-10T02:26:33.462Z,11.68
2023-03-10T02:29:02.288Z,11.68
2023-03-10T02:31:30.874Z,11.68
2023-03-10T02:33:59.910Z,11.69
2023-03-10T02:36:28.355Z,11.71
2023-03-10T02:38:56.541Z,11.71
2023-03-10T02:41:35.657Z,11.70
2023-03-10T02:44:07.310Z,11.66
2023-03-10T02:46:37.234Z,11.63
2023-03-10T02:49:10.863Z,11.58
2023-03-10T02:51:46.445Z,11.51
2023-03-10T02:54:19.322Z,11.43
2023-03-10T02:56:47.687Z,11.32
2023-03-10T02:59:16.810Z,11.23
2023-03-10T03:01:55.860Z,11.14
2023-03-10T03:04:24.526Z,11.05
2023-03-10T03:06:52.857Z,10.98
2023-03-10T03:09:22.787Z,10.93
2023-03-10T03:11:51.351Z,10.88
2023-03-10T03:14:19.881Z,10.84
2023-03-10T03:16:49.644Z,10.81
2023-03-10T03:19:18.083Z,10.80
2023-03-10T03:21:50.173Z,10.78
2023-03-10T03:24:21.206Z,10.76
2023-03-10T03:26:49.649Z,10.70
2023-03-10T03:29:20.528Z,10.65
2023-03-10T03:31:48.890Z,10.61
2023-03-10T03:34:23.955Z,10.55
2023-03-10T03:36:54.269Z,10.47
2023-03-10T03:39:30.043Z,10.38
2023-03-10T03:42:01.053Z,10.30
2023-03-10T03:44:33.868Z,10.20
2023-03-10T03:47:02.421Z,10.12
2023-03-10T03:49:31.573Z,10.07
2023-03-10T03:51:59.869Z,10.02
2023-03-10T03:54:28.938Z,9.97
2023-03-10T03:56:59.449Z,9.94
2023-03-10T03:59:27.955Z,9.91
2023-03-10T04:01:56.717Z,9.89
2023-03-10T04:04:25.737Z,9.88
2023-03-10T04:06:54.041Z,9.89
2023-03-10T04:09:22.423Z,9.93
2023-03-10T04:11:51.013Z,9.93
2023-03-10T04:14:21.507Z,9.89
2023-03-10T04:16:50.380Z,9.84
2023-03-10T04:19:22.792Z,9.76
2023-03-10T04:21:53.451Z,9.68
2023-03-10T04:24:21.868Z,9.60
2023-03-10T04:26:50.411Z,9.54
2023-03-10T04:29:19.286Z,9.50
2023-03-10T04:32:04.167Z,9.46
2023-03-10T04:34:35.211Z,9.40
2023-03-10T04:37:04.280Z,9.33
2023-03-10T04:39:34.165Z,9.27
2023-03-10T04:42:02.883Z,9.22
2023-03-10T04:44:34.554Z,9.19
2023-03-10T04:47:04.601Z,9.19
2023-03-10T04:49:33.238Z,9.21
2023-03-10T04:52:04.590Z,9.21
2023-03-10T04:54:33.748Z,9.20
2023-03-10T04:57:05.050Z,9.18
2023-03-10T04:59:33.776Z,9.16
2023-03-10T05:02:03.022Z,9.15
2023-03-10T05:04:31.794Z,9.16
2023-03-10T05:07:00.255Z,9.19
2023-03-10T05:09:37.695Z,9.24
2023-03-10T05:12:07.181Z,9.29
2023-03-10T05:14:41.146Z,9.35
2023-03-10T05:17:10.608Z,9.43
2023-03-10T05:19:39.382Z,9.52
2023-03-10T05:22:11.687Z,9.59
2023-03-10T05:24:40.152Z,9.64
2023-03-10T05:27:08.912Z,9.66
2023-03-10T05:29:39.371Z,9.65
2023-03-10T05:32:13.650Z,9.65
2023-03-10T05:34:46.843Z,9.64
2023-03-10T05:37:15.472Z,9.63
2023-03-10T05:39:44.552Z,9.62
2023-03-10T05:42:17.041Z,9.59
2023-03-10T05:44:45.629Z,9.57
2023-03-10T05:47:20.079Z,9.56
2023-03-10T05:49:48.881Z,9.56
2023-03-10T05:52:17.390Z,9.59
2023-03-10T05:54:46.461Z,9.64
2023-03-10T05:57:15.115Z,9.74
2023-03-10T05:59:43.932Z,9.86
2023-03-10T06:02:12.494Z,9.99
2023-03-10T06:04:40.733Z,10.12
2023-03-10T06:07:08.995Z,10.18
2023-03-10T06:09:37.358Z,10.19
2023-03-10T06:12:06.306Z,10.18
2023-03-10T06:14:35.447Z,10.12
2023-03-10T06:17:04.344Z,10.03
2023-03-10T06:19:35.618Z,9.95
2023-03-10T06:22:04.373Z,9.89
2023-03-10T06:24:32.629Z,9.85
2023-03-10T06:27:00.909Z,9.84
2023-03-10T06:29:31.860Z,9.87
2023-03-10T06:32:04.228Z,9.94
2023-03-10T06:34:32.854Z,10.03
2023-03-10T06:37:01.131Z,10.12
2023-03-10T06:39:31.669Z,10.20
2023-03-10T06:42:01.275Z,10.28
2023-03-10T06:44:30.063Z,10.32
2023-03-10T06:46:59.103Z,10.37
2023-03-10T06:49:32.393Z,10.46
2023-03-10T06:52:01.382Z,10.58
2023-03-10T06:54:31.187Z,10.70
2023-03-10T06:57:00.171Z,10.83
2023-03-10T06:59:31.950Z,10.93
2023-03-10T07:02:00.224Z,11.04
2023-03-10T07:04:28.573Z,11.11
2023-03-10T07:06:57.137Z,11.16
2023-03-10T07:09:27.386Z,11.21
2023-03-10T07:11:57.530Z,11.26
2023-03-10T07:14:26.196Z,11.32
2023-03-10T07:16:56.712Z,11.38
2023-03-10T07:19:25.338Z,11.46
2023-03-10T07:21:54.374Z,11.51
2023-03-10T07:24:24.282Z,11.57
2023-03-10T07:26:53.360Z,11.65
2023-03-10T07:29:22.670Z,11.69
2023-03-10T07:31:51.609Z,11.75
2023-03-10T07:34:21.388Z,11.82
2023-03-10T07:36:52.501Z,11.85
2023-03-10T07:39:21.902Z,11.87
2023-03-10T07:41:50.730Z,11.90
2023-03-10T07:44:20.050Z,11.92
2023-03-10T07:46:48.780Z,11.94
2023-03-10T07:49:18.551Z,11.99
2023-03-10T07:51:48.319Z,12.06
2023-03-10T07:54:17.093Z,12.11
2023-03-10T07:56:45.649Z,12.12
2023-03-10T07:59:15.072Z,12.15
2023-03-10T08:01:43.468Z,12.20
2023-03-10T08:04:12.813Z,12.25
2023-03-10T08:06:41.622Z,12.27
2023-03-10T08:09:10.100Z,12.30
2023-03-10T08:11:40.952Z,12.33
2023-03-10T08:14:09.614Z,12.38
2023-03-10T08:16:43.218Z,12.44
2023-03-10T08:19:11.870Z,12.50
2023-03-10T08:21:41.528Z,12.51
2023-03-10T08:24:13.867Z,12.53
2023-03-10T08:26:42.511Z,12.53
2023-03-10T08:29:11.619Z,12.52
2023-03-10T08:31:41.218Z,12.57
2023-03-10T08:34:09.929Z,12.63
2023-03-10T08:36:39.081Z,12.65
2023-03-10T08:39:08.013Z,12.67
2023-03-10T08:41:37.866Z,12.71
2023-03-10T08:44:08.118Z,12.77
2023-03-10T08:46:36.724Z,12.80
2023-03-10T08:49:05.078Z,12.81
2023-03-10T08:51:35.869Z,12.85
2023-03-10T08:54:04.473Z,12.90
2023-03-10T08:56:32.974Z,12.96
2023-03-10T08:59:01.448Z,13.03
2023-03-10T09:01:35.453Z,13.09
2023-03-10T09:04:05.211Z,13.16
2023-03-10T09:06:33.680Z,13.25
2023-03-10T09:09:02.208Z,13.34
2023-03-10T09:11:32.528Z,13.41
2023-03-10T09:14:01.274Z,13.46
2023-03-10T09:16:31.606Z,13.51
2023-03-10T09:19:01.282Z,13.58
2023-03-10T09:21:33.114Z,13.65
2023-03-10T09:24:03.456Z,13.67
2023-03-10T09:26:31.917Z,13.69
2023-03-10T09:29:05.116Z,13.69
2023-03-10T09:31:36.307Z,13.73
2023-03-10T09:34:06.361Z,13.78
2023-03-10T09:36:34.852Z,13.83
2023-03-10T09:39:03.919Z,13.92
2023-03-10T09:41:58.602Z,14.01
2023-03-10T09:44:43.556Z,14.11
2023-03-10T09:47:24.242Z,14.21
2023-03-10T09:49:52.872Z,14.27
2023-03-10T09:52:46.690Z,14.29
2023-03-10T09:55:26.211Z,14.26
2023-03-10T09:57:55.432Z,14.24
2023-03-10T10:00:27.636Z,14.27
2023-03-10T10:03:01.789Z,14.37
2023-03-10T10:05:33.727Z,14.43
2023-03-10T10:08:06.179Z,14.50
2023-03-10T10:10:37.473Z,14.59
2023-03-10T10:13:14.793Z,14.69
2023-03-10T10:15:46.038Z,14.82
2023-03-10T10:18:20.742Z,14.94
2023-03-10T10:21:00.582Z,15.05
2023-03-10T10:23:34.058Z,15.12
2023-03-10T10:26:10.789Z,15.19
2023-03-10T10:28:42.279Z,15.23
2023-03-10T10:31:18.402Z,15.29
2023-03-10T10:33:58.130Z,15.37
2023-03-10T10:36:48.651Z,15.44
2023-03-10T10:39:37.325Z,15.47
2023-03-10T10:42:18.911Z,15.45
2023-03-10T10:44:47.570Z,15.43
2023-03-10T10:47:24.561Z,15.37
2023-03-10T10:49:53.415Z,15.23
2023-03-10T10:52:23.623Z,15.03
2023-03-10T10:54:58.891Z,14.94
2023-03-10T10:57:34.041Z,14.95
2023-03-10T11:00:15.477Z,14.91
2023-03-10T11:02:49.663Z,14.85
2023-03-10T11:05:25.834Z,14.87
2023-03-10T11:07:54.108Z,14.87
2023-03-10T11:10:32.993Z,14.82
2023-03-10T11:13:12.577Z,14.80
2023-03-10T11:15:50.117Z,14.79
2023-03-10T11:18:30.460Z,14.82
2023-03-10T11:21:31.876Z,14.87
2023-03-10T11:24:14.236Z,14.91
2023-03-10T11:26:56.430Z,14.96
2023-03-10T11:29:31.322Z,15.03
2023-03-10T11:32:08.904Z,15.09
2023-03-10T11:34:41.815Z,15.13
2023-03-10T11:37:36.478Z,15.21
2023-03-10T11:40:38.070Z,15.30
2023-03-10T11:43:38.339Z,15.37
2023-03-10T11:46:28.766Z,15.45
2023-03-10T11:49:16.762Z,15.54
2023-03-10T11:51:49.672Z,15.58
2023-03-10T11:54:30.249Z,15.59
2023-03-10T11:57:00.110Z,15.59
2023-03-10T11:59:30.694Z,15.63
2023-03-10T12:01:59.822Z,15.65
2023-03-10T12:04:32.159Z,15.63
2023-03-10T12:07:04.819Z,15.61
2023-03-10T12:09:57.996Z,15.66
2023-03-10T12:12:27.277Z,15.72
2023-03-10T12:15:00.607Z,15.83
2023-03-10T12:17:29.792Z,16.00
2023-03-10T12:20:13.890Z,16.17
2023-03-10T12:22:43.032Z,16.31
2023-03-10T12:25:29.607Z,16.41
2023-03-10T12:28:16.230Z,16.48
2023-03-10T12:30:51.677Z,16.59
2023-03-10T12:33:39.904Z,16.72
2023-03-10T12:36:34.266Z,16.85
2023-03-10T12:39:24.341Z,16.96
2023-03-10T12:41:56.855Z,17.09
2023-03-10T12:44:37.105Z,17.20
2023-03-10T12:47:08.581Z,17.28
2023-03-10T12:49:43.419Z,17.32
2023-03-10T12:52:20.892Z,17.33
2023-03-10T12:54:56.154Z,17.33
2023-03-10T12:57:45.213Z,17.32
2023-03-10T13:00:23.865Z,17.32
2023-03-10T13:03:02.958Z,17.35
2023-03-10T13:05:34.223Z,17.34
2023-03-10T13:08:24.424Z,17.27
2023-03-10T13:10:54.978Z,17.17
2023-03-10T13:13:27.597Z,17.09
2023-03-10T13:16:19.372Z,17.00
2023-03-10T13:18:52.109Z,16.91
2023-03-10T13:21:46.777Z,16.86
2023-03-10T13:24:28.707Z,16.83
2023-03-10T13:27:08.473Z,16.78
2023-03-10T13:29:37.645Z,16.72
2023-03-10T13:32:06.571Z,16.69
2023-03-10T13:34:36.918Z,16.72
2023-03-10T13:37:06.813Z,16.75
2023-03-10T13:39:35.871Z,16.75
2023-03-10T13:42:21.385Z,16.71
2023-03-10T13:44:53.154Z,16.69
2023-03-10T13:47:23.404Z,16.65
2023-03-10T13:49:56.594Z,16.58
2023-03-10T13:52:30.106Z,16.56
2023-03-10T13:55:12.957Z,16.54
2023-03-10T13:57:42.360Z,16.51
2023-03-10T14:00:18.757Z,16.44
2023-03-10T14:02:48.670Z,16.34
2023-03-10T14:05:41.773Z,16.23
2023-03-10T14:08:31.085Z,16.07
2023-03-10T14:11:22.204Z,15.87
2023-03-10T14:13:51.779Z,15.69
2023-03-10T14:16:20.301Z,15.52
2023-03-10T14:18:51.325Z,15.36
2023-03-10T14:21:25.335Z,15.22
2023-03-10T14:23:57.096Z,15.08
2023-03-10T14:26:25.565Z,14.92
2023-03-10T14:28:54.384Z,14.79
2023-03-10T14:31:23.961Z,14.68
2023-03-10T14:33:52.452Z,14.56
2023-03-10T14:36:20.917Z,14.46
2023-03-10T14:38:52.614Z,14.37
2023-03-10T14:41:23.868Z,14.31
2023-03-10T14:43:52.291Z,14.25
2023-03-10T14:46:20.947Z,14.16
2023-03-10T14:48:50.234Z,14.07
2023-03-10T14:51:32.632Z,13.96
2023-03-10T14:54:03.956Z,13.82
2023-03-10T14:56:33.644Z,13.68
2023-03-10T14:59:02.791Z,13.48
2023-03-10T15:01:31.535Z,13.29
2023-03-10T15:03:59.884Z,13.13
2023-03-10T15:06:28.342Z,12.98
2023-03-10T15:08:56.646Z,12.85
2023-03-10T15:11:36.534Z,12.69
2023-03-10T15:14:14.392Z,12.49
2023-03-10T15:16:49.237Z,12.30
2023-03-10T15:19:25.100Z,12.15
2023-03-10T15:21:53.780Z,11.96
2023-03-10T15:24:22.124Z,11.78
2023-03-10T15:26:50.786Z,11.64
2023-03-10T15:29:23.676Z,11.52
2023-03-10T15:31:53.149Z,11.44
2023-03-10T15:34:21.411Z,11.35
2023-03-10T15:36:51.609Z,11.27
2023-03-10T15:39:31.151Z,11.18
2023-03-10T15:42:00.644Z,11.09
2023-03-10T15:44:29.556Z,11.00
2023-03-10T15:47:00.246Z,10.93
2023-03-10T15:49:30.142Z,10.86
2023-03-10T15:51:58.425Z,10.78
2023-03-10T15:54:26.644Z,10.71
2023-03-10T15:56:55.262Z,10.66
2023-03-10T15:59:28.147Z,10.62
2023-03-10T16:01:57.879Z,10.58
2023-03-10T16:04:26.396Z,10.55
2023-03-10T16:06:55.050Z,10.52
2023-03-10T16:09:23.406Z,10.51
2023-03-10T16:11:52.334Z,10.48
2023-03-10T16:14:26.598Z,10.45
2023-03-10T16:16:55.147Z,10.41
2023-03-10T16:19:23.554Z,10.35
2023-03-10T16:21:53.746Z,10.29
2023-03-10T16:24:22.291Z,10.21
2023-03-10T16:26:50.522Z,10.13
2023-03-10T16:29:20.098Z,10.04
2023-03-10T16:31:48.598Z,9.96
2023-03-10T16:34:18.813Z,9.88
2023-03-10T16:36:49.764Z,9.78
2023-03-10T16:39:18.433Z,9.70
2023-03-10T16:41:50.099Z,9.64
2023-03-10T16:44:18.633Z,9.57
2023-03-10T16:46:47.162Z,9.48
2023-03-10T16:49:16.018Z,9.39
2023-03-10T16:51:45.348Z,9.28
2023-03-10T16:54:21.686Z,9.18
2023-03-10T16:56:51.709Z,9.09
2023-03-10T16:59:27.067Z,9.02
2023-03-10T17:01:55.973Z,8.95
2023-03-10T17:04:24.396Z,8.89
2023-03-10T17:06:52.726Z,8.85
2023-03-10T17:09:21.041Z,8.81
2023-03-10T17:11:55.278Z,8.78
2023-03-10T17:14:24.412Z,8.76
2023-03-10T17:16:54.173Z,8.77
2023-03-10T17:19:28.843Z,8.78
2023-03-10T17:21:58.414Z,8.78
2023-03-10T17:24:27.596Z,8.78
2023-03-10T17:26:57.137Z,8.79
2023-03-10T17:29:25.723Z,8.79
2023-03-10T17:31:59.680Z,8.78
2023-03-10T17:34:29.561Z,8.78
2023-03-10T17:36:57.950Z,8.79
2023-03-10T17:39:27.982Z,8.81
2023-03-10T17:41:56.404Z,8.82
2023-03-10T17:44:27.543Z,8.80
2023-03-10T17:46:58.856Z,8.77
2023-03-10T17:49:27.324Z,8.73
2023-03-10T17:51:55.981Z,8.69
2023-03-10T17:54:24.528Z,8.66
2023-03-10T17:56:54.278Z,8.63
2023-03-10T17:59:22.800Z,8.61
2023-03-10T18:01:51.244Z,8.59
2023-03-10T18:04:19.966Z,8.58
2023-03-10T18:06:49.064Z,8.57
2023-03-10T18:09:37.297Z,8.55
2023-03-10T18:12:06.831Z,8.55
2023-03-10T18:14:36.567Z,8.54
2023-03-10T18:17:05.525Z,8.53
2023-03-10T18:19:33.874Z,8.53
2023-03-10T18:22:08.313Z,8.58
2023-03-10T18:24:43.237Z,8.61
2023-03-10T18:27:12.341Z,8.63
2023-03-10T18:29:41.716Z,8.65
2023-03-10T18:32:12.643Z,8.70
2023-03-10T18:34:42.556Z,8.72
2023-03-10T18:37:10.918Z,8.75
2023-03-10T18:39:41.192Z,8.79
2023-03-10T18:42:10.621Z,8.82
2023-03-10T18:44:39.741Z,8.82
2023-03-10T18:47:09.180Z,8.85
2023-03-10T18:49:37.474Z,8.85
2023-03-10T18:52:06.095Z,8.85
2023-03-10T18:54:36.084Z,8.86
2023-03-10T18:57:05.889Z,8.87
2023-03-10T18:59:34.639Z,8.88
2023-03-10T19:02:03.833Z,8.89
2023-03-10T19:04:33.087Z,8.91
2023-03-10T19:07:05.895Z,8.92
2023-03-10T19:09:43.884Z,8.90
2023-03-10T19:12:12.206Z,8.86
2023-03-10T19:14:41.735Z,8.81
2023-03-10T19:17:10.534Z,8.78
2023-03-10T19:19:44.056Z,8.76
2023-03-10T19:22:13.008Z,8.72
2023-03-10T19:24:41.341Z,8.70
2023-03-10T19:27:12.062Z,8.68
2023-03-10T19:29:41.144Z,8.63
2023-03-10T19:32:10.756Z,8.59
2023-03-10T19:34:39.684Z,8.54
2023-03-10T19:37:08.064Z,8.48
2023-03-10T19:39:38.974Z,8.42
2023-03-10T19:42:07.569Z,8.37
2023-03-10T19:44:38.754Z,8.32
2023-03-10T19:47:07.539Z,8.29
2023-03-10T19:49:38.329Z,8.24
2023-03-10T19:52:07.309Z,8.22
2023-03-10T19:54:35.865Z,8.20
2023-03-10T19:57:05.026Z,8.18
2023-03-10T19:59:33.856Z,8.15
2023-03-10T20:02:03.432Z,8.14
2023-03-10T20:04:34.711Z,8.15
2023-03-10T20:07:03.112Z,8.14
2023-03-10T20:09:33.886Z,8.16
2023-03-10T20:12:02.261Z,8.18
2023-03-10T20:14:31.390Z,8.18
2023-03-10T20:17:00.771Z,8.17
2023-03-10T20:19:30.769Z,8.15
2023-03-10T20:21:59.560Z,8.14
2023-03-10T20:24:27.870Z,8.13
2023-03-10T20:26:59.132Z,8.13
2023-03-10T20:29:33.912Z,8.13
2023-03-10T20:32:04.517Z,8.14
2023-03-10T20:34:33.142Z,8.14
2023-03-10T20:37:01.488Z,8.12
2023-03-10T20:39:31.676Z,8.09
2023-03-10T20:42:00.672Z,8.07
2023-03-10T20:44:29.695Z,8.08
2023-03-10T20:46:58.108Z,8.11
2023-03-10T20:49:26.705Z,8.14
2023-03-10T20:51:55.294Z,8.18
2023-03-10T20:54:23.975Z,8.22
2023-03-10T20:56:52.741Z,8.25
2023-03-10T20:59:24.533Z,8.24
2023-03-10T21:01:53.134Z,8.26
2023-03-10T21:04:21.616Z,8.26
2023-03-10T21:06:50.175Z,8.27
2023-03-10T21:09:19.360Z,8.31
2023-03-10T21:11:50.498Z,8.34
2023-03-10T21:14:19.355Z,8.39
2023-03-10T21:16:47.860Z,8.45
2023-03-10T21:19:24.039Z,8.49
2023-03-10T21:21:52.735Z,8.51
2023-03-10T21:24:21.910Z,8.51
2023-03-10T21:26:50.351Z,8.50
2023-03-10T21:29:18.827Z,8.48
2023-03-10T21:31:50.057Z,8.47
2023-03-10T21:34:19.037Z,8.45
2023-03-10T21:36:47.428Z,8.41
2023-03-10T21:39:15.730Z,8.39
2023-03-10T21:41:44.248Z,8.37
2023-03-10T21:44:12.665Z,8.35
2023-03-10T21:46:41.855Z,8.33
2023-03-10T21:49:13.267Z,8.31
2023-03-10T21:51:45.239Z,8.27
2023-03-10T21:54:13.650Z,8.25
2023-03-10T21:56:42.090Z,8.24
2023-03-10T21:59:10.738Z,8.23
2023-03-10T22:01:43.118Z,8.22
2023-03-10T22:04:12.284Z,8.18
2023-03-10T22:06:41.804Z,8.15
2023-03-10T22:09:11.529Z,8.12
2023-03-10T22:11:40.922Z,8.10
2023-03-10T22:14:10.613Z,8.08
2023-03-10T22:16:39.108Z,8.06
2023-03-10T22:19:09.618Z,8.05
2023-03-10T22:21:38.113Z,8.04
2023-03-10T22:24:06.597Z,8.05
2023-03-10T22:26:35.430Z,8.07
2023-03-10T22:29:03.804Z,8.08
2023-03-10T22:31:32.822Z,8.09
2023-03-10T22:34:01.271Z,8.08
2023-03-10T22:36:34.120Z,8.09
2023-03-10T22:39:03.376Z,8.08
2023-03-10T22:41:31.923Z,8.09
2023-03-10T22:44:00.483Z,8.10
2023-03-10T22:46:29.027Z,8.14
2023-03-10T22:48:59.139Z,8.17
2023-03-10T22:51:27.646Z,8.20
2023-03-10T22:53:59.187Z,8.24
2023-03-10T22:56:27.850Z,8.26
2023-03-10T22:58:56.506Z,8.29
2023-03-10T23:01:25.145Z,8.31
2023-03-10T23:03:54.036Z,8.31
2023-03-10T23:06:26.406Z,8.30
2023-03-10T23:08:57.018Z,8.28
2023-03-10T23:11:26.622Z,8.25
2023-03-10T23:13:56.461Z,8.26
2023-03-10T23:16:24.859Z,8.31
2023-03-10T23:18:53.597Z,8.35
2023-03-10T23:21:22.046Z,8.39
2023-03-10T23:23:51.702Z,8.46
2023-03-10T23:26:20.138Z,8.50
2023-03-10T23:28:50.852Z,8.55
2023-03-10T23:31:19.561Z,8.60
2023-03-10T23:33:49.715Z,8.62
2023-03-10T23:36:18.571Z,8.63
2023-03-10T23:38:46.949Z,8.63
2023-03-10T23:41:15.304Z,8.65
2023-03-10T23:43:43.901Z,8.65
2023-03-10T23:46:12.516Z,8.64
2023-03-10T23:48:41.772Z,8.63
2023-03-10T23:51:16.296Z,8.65
2023-03-10T23:53:46.494Z,8.68
2023-03-10T23:56:14.764Z,8.70
2023-03-10T23:58:43.578Z,8.71
